Berdick Field


Codes: 0NK0/
Name: Berdick Field
City: Cattaraugus
Country: United States
Elevation: 1690 ft.

Photos at Berdick Field


   Photos courtesy of SpottingLog. You can add your own sightings and photos by signing up for a free trial today.



No photos found.

Weather at Berdick Field


Time (UTC)DescriptionTempratureWindCloud coverageVisibilityPressureHumidity
16-Jun-2024 00:00Few Clouds19°C4 mph, N13%10000m1021hPa86%
16-Jun-2024 03:00Scattered Clouds16°C4 mph, E39%10000m1021hPa89%
16-Jun-2024 06:00Broken Clouds13°C4 mph, SE68%10000m1022hPa92%
16-Jun-2024 09:00Overcast Clouds10°C4 mph, SE94%10000m1023hPa95%
16-Jun-2024 12:00Overcast Clouds14°C4 mph, SE96%10000m1023hPa87%
16-Jun-2024 15:00Overcast Clouds21°C4 mph, S100%10000m1021hPa60%
16-Jun-2024 18:00Overcast Clouds26°C4 mph, SW100%10000m1019hPa44%
16-Jun-2024 21:00Overcast Clouds26°C4 mph, SW100%10000m1017hPa50%
17-Jun-2024 00:00Overcast Clouds21°C4 mph, SE100%10000m1017hPa75%
17-Jun-2024 03:00Overcast Clouds19°C9 mph, S94%10000m1017hPa79%
17-Jun-2024 06:00Broken Clouds17°C7 mph, S64%10000m1017hPa86%
17-Jun-2024 09:00Clear Sky15°C7 mph, S2%10000m1018hPa96%
17-Jun-2024 12:00Few Clouds20°C7 mph, S11%10000m1019hPa82%
17-Jun-2024 15:00Overcast Clouds25°C11 mph, SW100%10000m1018hPa64%
17-Jun-2024 18:00Broken Clouds29°C11 mph, SW60%10000m1018hPa61%
17-Jun-2024 21:00Clear Sky29°C7 mph, W0%10000m1018hPa70%
18-Jun-2024 00:00Light Rain25°C2 mph, W0%10000m1018hPa88%
18-Jun-2024 03:00Clear Sky22°C4 mph, S3%10000m1020hPa92%
18-Jun-2024 06:00Clear Sky21°C4 mph, S2%10000m1020hPa93%
18-Jun-2024 09:00Broken Clouds20°C7 mph, S57%10000m1021hPa94%
18-Jun-2024 12:00Broken Clouds23°C4 mph, S80%10000m1022hPa88%
18-Jun-2024 15:00Overcast Clouds28°C7 mph, SW96%10000m1021hPa63%
18-Jun-2024 18:00Light Rain30°C7 mph, W69%10000m1021hPa61%
18-Jun-2024 21:00Light Rain29°C7 mph, NW100%10000m1021hPa71%
19-Jun-2024 00:00Light Rain25°C2 mph, NE100%10000m1021hPa86%
19-Jun-2024 03:00Overcast Clouds22°C4 mph, S94%10000m1023hPa91%
19-Jun-2024 06:00Light Rain21°C7 mph, S97%10000m1023hPa95%
19-Jun-2024 09:00Light Rain21°C4 mph, S100%10000m1024hPa95%
19-Jun-2024 12:00Overcast Clouds23°C4 mph, S100%10000m1025hPa92%
19-Jun-2024 15:00Overcast Clouds27°C7 mph, SW100%10000m1025hPa73%
19-Jun-2024 18:00Moderate Rain26°C7 mph, W100%5235m1024hPa95%
19-Jun-2024 21:00Light Rain26°C4 mph, NW100%10000m1023hPa88%
20-Jun-2024 00:00Light Rain24°C2 mph, S100%10000m1024hPa88%
20-Jun-2024 03:00Overcast Clouds22°C4 mph, S100%10000m1024hPa92%
20-Jun-2024 06:00Light Rain20°C4 mph, S100%10000m1024hPa93%
20-Jun-2024 09:00Light Rain20°C2 mph, S94%10000m1024hPa93%
20-Jun-2024 12:00Overcast Clouds23°C2 mph, S85%10000m1025hPa90%
20-Jun-2024 15:00Light Rain27°C7 mph, W91%10000m1024hPa73%
20-Jun-2024 18:00Light Rain28°C7 mph, W75%10000m1024hPa70%
20-Jun-2024 21:00Light Rain26°C4 mph, NW100%10000m1024hPa85%